createdAt,value
2019-04-25T00:02:32.648Z,96030.30
2019-04-25T00:05:03.271Z,96030.09
2019-04-25T00:07:32.913Z,96028.17
2019-04-25T00:10:02.250Z,96034.05
2019-04-25T00:12:32.023Z,96031.48
2019-04-25T00:15:01.768Z,96032.88
2019-04-25T00:17:31.649Z,96030.27
2019-04-25T00:20:01.583Z,96029.78
2019-04-25T00:22:37.198Z,96025.02
2019-04-25T00:25:26.888Z,96032.30
2019-04-25T00:27:56.231Z,96032.80
2019-04-25T00:30:27.250Z,96041.23
2019-04-25T00:32:56.580Z,96034.60
2019-04-25T00:35:25.937Z,96030.24
2019-04-25T00:37:55.306Z,96024.61
2019-04-25T00:40:24.667Z,96025.51
2019-04-25T00:42:54.067Z,96033.75
2019-04-25T00:45:23.443Z,96033.00
2019-04-25T00:47:52.961Z,96031.19
2019-04-25T00:50:22.333Z,96026.41
2019-04-25T00:52:53.339Z,96027.12
2019-04-25T00:55:28.701Z,96030.27
2019-04-25T00:57:58.461Z,96035.31
2019-04-25T01:00:36.137Z,96039.08
2019-04-25T01:03:07.537Z,96040.50
2019-04-25T01:05:37.256Z,96039.85
2019-04-25T01:08:06.797Z,96038.42
2019-04-25T01:10:36.202Z,96039.77
2019-04-25T01:13:06.032Z,96048.70
2019-04-25T01:15:35.464Z,95084.83
2019-04-25T01:18:05.538Z,96038.86
2019-04-25T01:20:34.896Z,96032.48
2019-04-25T01:23:04.272Z,96043.59
2019-04-25T01:25:41.085Z,96050.24
2019-04-25T01:28:05.385Z,96050.58
2019-04-25T01:30:34.718Z,96049.75
2019-04-25T01:33:04.361Z,96039.99
2019-04-25T01:35:47.336Z,96045.16
2019-04-25T01:38:38.533Z,96049.93
2019-04-25T01:41:38.962Z,96051.94
2019-04-25T01:44:14.325Z,96051.13
2019-04-25T01:46:44.860Z,96041.78
2019-04-25T01:49:14.321Z,96028.86
2019-04-25T01:51:43.789Z,96040.00
2019-04-25T01:54:14.123Z,96054.67
2019-04-25T01:56:44.287Z,96058.98
2019-04-25T01:59:15.215Z,96047.97
2019-04-25T02:01:44.770Z,96041.45
2019-04-25T02:04:14.202Z,96043.13
2019-04-25T02:06:43.624Z,96041.66
2019-04-25T02:09:14.049Z,96049.73
2019-04-25T02:12:05.639Z,96041.92
2019-04-25T02:14:35.455Z,96036.27
2019-04-25T02:17:04.822Z,96041.59
2019-04-25T02:19:35.746Z,96037.32
2019-04-25T02:22:05.415Z,96042.98
2019-04-25T02:24:34.788Z,96038.94
2019-04-25T02:27:04.723Z,96030.70
2019-04-25T02:29:34.143Z,96025.47
2019-04-25T02:32:08.758Z,96029.47
2019-04-25T02:34:34.989Z,96034.82
2019-04-25T02:37:09.184Z,96031.14
2019-04-25T02:39:37.414Z,96024.09
2019-04-25T02:42:08.484Z,96021.52
2019-04-25T02:44:40.918Z,96034.58
2019-04-25T02:47:29.164Z,96038.98
2019-04-25T02:50:26.545Z,96031.53
2019-04-25T02:53:07.285Z,96029.14
2019-04-25T02:55:37.787Z,96032.07
2019-04-25T02:58:10.019Z,96046.66
2019-04-25T03:00:51.744Z,96041.55
2019-04-25T03:03:09.956Z,96042.98
2019-04-25T03:05:39.446Z,96059.56
2019-04-25T03:08:10.533Z,96046.69
2019-04-25T03:10:39.990Z,96048.22
2019-04-25T03:13:11.726Z,96046.88
2019-04-25T03:15:40.477Z,96051.23
2019-04-25T03:18:12.413Z,96052.00
2019-04-25T03:21:01.218Z,96054.52
2019-04-25T03:23:38.004Z,96056.69
2019-04-25T03:26:07.604Z,96044.55
2019-04-25T03:28:37.008Z,96043.00
2019-04-25T03:31:12.766Z,96048.89
2019-04-25T03:33:38.383Z,96043.91
2019-04-25T03:36:09.321Z,96039.16
2019-04-25T03:38:38.803Z,96040.10
2019-04-25T03:41:08.666Z,96046.53
2019-04-25T03:43:38.084Z,96051.29
2019-04-25T03:46:08.273Z,96052.66
2019-04-25T03:48:37.693Z,96054.71
2019-04-25T03:51:07.908Z,96053.28
2019-04-25T03:53:37.384Z,96055.97
2019-04-25T03:56:07.371Z,96057.56
2019-04-25T03:58:37.119Z,96047.17
2019-04-25T04:01:08.266Z,96058.53
2019-04-25T04:03:39.960Z,96057.41
2019-04-25T04:06:09.903Z,96062.21
2019-04-25T04:08:39.370Z,96063.27
2019-04-25T04:11:08.754Z,96071.98
2019-04-25T04:13:38.076Z,96075.60
2019-04-25T04:16:08.414Z,96082.36
2019-04-25T04:18:48.433Z,96074.91
2019-04-25T04:21:43.236Z,96076.59
2019-04-25T04:24:28.405Z,96078.39
2019-04-25T04:27:08.985Z,96080.07
2019-04-25T04:29:38.876Z,96035.00
2019-04-25T04:32:08.669Z,96081.82
2019-04-25T04:34:38.055Z,96089.94
2019-04-25T04:37:07.635Z,96092.86
2019-04-25T04:39:37.024Z,96093.15
2019-04-25T04:42:06.446Z,96099.84
2019-04-25T04:44:35.825Z,96096.65
2019-04-25T04:47:05.586Z,96107.48
2019-04-25T04:49:35.477Z,96110.94
2019-04-25T04:52:06.533Z,96104.59
2019-04-25T04:54:35.978Z,96106.53
2019-04-25T04:57:18.543Z,96108.00
2019-04-25T04:59:36.892Z,96110.15
2019-04-25T05:02:28.276Z,96115.23
2019-04-25T05:05:17.148Z,96112.70
2019-04-25T05:07:59.320Z,96121.02
2019-04-25T05:10:28.720Z,96120.05
2019-04-25T05:12:58.102Z,96121.25
2019-04-25T05:15:27.456Z,96130.41
2019-04-25T05:17:56.805Z,96122.92
2019-04-25T05:20:26.171Z,96125.33
2019-04-25T05:22:55.556Z,96128.53
2019-04-25T05:25:24.962Z,96122.09
2019-04-25T05:28:00.676Z,96131.13
2019-04-25T05:30:33.573Z,96128.28
2019-04-25T05:33:03.983Z,96126.52
2019-04-25T05:35:33.420Z,96116.86
2019-04-25T05:38:03.406Z,96118.37
2019-04-25T05:40:34.574Z,96113.61
2019-04-25T05:43:08.182Z,96114.47
2019-04-25T05:45:37.537Z,96106.44
2019-04-25T05:48:07.024Z,96112.75
2019-04-25T05:50:36.446Z,96110.16
2019-04-25T05:53:05.988Z,96115.28
2019-04-25T05:55:35.405Z,96113.23
2019-04-25T05:58:04.851Z,96109.97
2019-04-25T06:00:34.350Z,96109.92
2019-04-25T06:03:04.061Z,96107.28
2019-04-25T06:05:33.706Z,96111.13
2019-04-25T06:08:04.308Z,96109.88
2019-04-25T06:10:56.001Z,96115.84
2019-04-25T06:14:03.385Z,96107.02
2019-04-25T06:16:37.100Z,96108.61
2019-04-25T06:19:19.688Z,96112.85
2019-04-25T06:21:48.804Z,96123.33
2019-04-25T06:24:30.234Z,96125.86
2019-04-25T06:27:22.077Z,96122.72
2019-04-25T06:29:59.006Z,96122.72
2019-04-25T06:32:26.913Z,96117.62
2019-04-25T06:34:56.232Z,96121.77
2019-04-25T06:37:25.878Z,96113.55
2019-04-25T06:39:55.483Z,96119.09
2019-04-25T06:42:25.729Z,96117.51
2019-04-25T06:45:00.134Z,96123.11
2019-04-25T06:47:54.038Z,96122.53
2019-04-25T06:50:24.879Z,96126.23
2019-04-25T06:52:54.529Z,96124.39
2019-04-25T06:55:25.953Z,96122.33
2019-04-25T06:57:54.952Z,96119.42
2019-04-25T07:00:28.475Z,96124.37
2019-04-25T07:02:56.533Z,96123.31
2019-04-25T07:05:33.458Z,96116.95
2019-04-25T07:07:57.197Z,96119.53
2019-04-25T07:10:27.511Z,96124.84
2019-04-25T07:12:56.875Z,96124.31
2019-04-25T07:15:27.955Z,96116.70
2019-04-25T07:17:57.376Z,96111.28
2019-04-25T07:20:28.316Z,96109.54
2019-04-25T07:22:58.893Z,96119.02
2019-04-25T07:25:31.788Z,96118.95
2019-04-25T07:28:38.760Z,96114.64
2019-04-25T07:31:34.787Z,96110.61
2019-04-25T07:34:09.760Z,96113.64
2019-04-25T07:36:39.119Z,96112.11
2019-04-25T07:39:10.577Z,96113.73
2019-04-25T07:41:40.323Z,96109.75
2019-04-25T07:44:10.055Z,96105.39
2019-04-25T07:46:40.096Z,96113.86
2019-04-25T07:49:09.663Z,96113.57
2019-04-25T07:51:39.019Z,96109.62
2019-04-25T07:54:08.425Z,96108.72
2019-04-25T07:56:37.934Z,96101.62
2019-04-25T07:59:07.723Z,96107.47
2019-04-25T08:01:37.909Z,96095.35
2019-04-25T08:04:08.200Z,96087.53
2019-04-25T08:06:37.731Z,96085.38
2019-04-25T08:09:09.477Z,96078.13
2019-04-25T08:11:38.849Z,96078.39
2019-04-25T08:14:19.396Z,96068.70
2019-04-25T08:16:51.458Z,96086.58
2019-04-25T08:19:21.270Z,96091.72
2019-04-25T08:21:51.021Z,96081.67
2019-04-25T08:24:20.494Z,96080.47
2019-04-25T08:26:49.877Z,96077.59
2019-04-25T08:29:19.229Z,96068.00
2019-04-25T08:31:48.607Z,96075.19
2019-04-25T08:34:17.964Z,96080.70
2019-04-25T08:36:47.316Z,96070.27
2019-04-25T08:39:16.680Z,96066.53
2019-04-25T08:41:46.022Z,96067.48
2019-04-25T08:44:15.413Z,96062.18
2019-04-25T08:46:48.577Z,96061.05
2019-04-25T08:49:24.090Z,96048.61
2019-04-25T08:51:55.753Z,96049.45
2019-04-25T08:54:47.761Z,96048.87
2019-04-25T08:57:40.099Z,96038.95
2019-04-25T09:00:27.625Z,96040.30
2019-04-25T09:03:00.714Z,96034.59
2019-04-25T09:05:49.020Z,96034.73
2019-04-25T09:08:18.382Z,96034.44
2019-04-25T09:10:48.175Z,96026.80
2019-04-25T09:13:17.562Z,96020.22
2019-04-25T09:15:46.934Z,96018.68
2019-04-25T09:18:16.288Z,96019.30
2019-04-25T09:20:46.646Z,96011.83
2019-04-25T09:23:16.246Z,96010.72
2019-04-25T09:25:46.237Z,96002.07
2019-04-25T09:28:15.707Z,95998.03
2019-04-25T09:30:45.914Z,95988.19
2019-04-25T09:33:15.421Z,95997.89
2019-04-25T09:35:45.985Z,95999.53
2019-04-25T09:38:15.448Z,95999.56
2019-04-25T09:40:45.690Z,95998.49
2019-04-25T09:43:15.986Z,96003.02
2019-04-25T09:46:04.180Z,95994.52
2019-04-25T09:48:51.393Z,95988.99
2019-04-25T09:51:28.218Z,95988.76
2019-04-25T09:54:23.736Z,95985.52
2019-04-25T09:56:55.921Z,95984.38
2019-04-25T09:59:27.861Z,95978.41
2019-04-25T10:01:57.270Z,95981.45
2019-04-25T10:04:26.794Z,95970.31
2019-04-25T10:06:56.201Z,95968.47
2019-04-25T10:09:25.580Z,95961.00
2019-04-25T10:11:54.948Z,95962.22
2019-04-25T10:15:04.639Z,95957.39
2019-04-25T10:17:34.373Z,95956.08
2019-04-25T10:20:03.763Z,95952.06
2019-04-25T10:22:33.920Z,95944.60
2019-04-25T10:25:03.432Z,95939.67
2019-04-25T10:27:33.121Z,95949.13
2019-04-25T10:30:16.062Z,95948.66
2019-04-25T10:32:33.950Z,95936.03
2019-04-25T10:35:04.419Z,95935.12
2019-04-25T10:37:35.264Z,95930.44
2019-04-25T10:40:05.363Z,95928.50
2019-04-25T10:42:34.723Z,95922.95
2019-04-25T10:45:04.297Z,95930.39
2019-04-25T10:47:35.191Z,95930.81
2019-04-25T10:50:05.171Z,95925.67
2019-04-25T10:52:34.641Z,95918.70
2019-04-25T10:55:04.293Z,95922.39
2019-04-25T10:57:34.058Z,95917.15
2019-04-25T11:00:08.945Z,95909.14
2019-04-25T11:02:36.209Z,95912.70
2019-04-25T11:05:11.048Z,95902.14
2019-04-25T11:07:40.665Z,95906.94
2019-04-25T11:10:10.094Z,95907.39
2019-04-25T11:12:40.033Z,95899.52
2019-04-25T11:15:09.821Z,95897.61
2019-04-25T11:17:39.232Z,95895.94
2019-04-25T11:20:10.425Z,95894.27
2019-04-25T11:22:39.856Z,95890.94
2019-04-25T11:25:09.333Z,95898.41
2019-04-25T11:27:38.756Z,95897.70
2019-04-25T11:30:11.496Z,95884.35
2019-04-25T11:32:40.959Z,95879.08
2019-04-25T11:35:10.309Z,95877.36
2019-04-25T11:37:41.013Z,95870.61
2019-04-25T11:40:23.658Z,95870.00
2019-04-25T11:42:54.561Z,95862.39
2019-04-25T11:45:24.444Z,95868.20
2019-04-25T11:47:55.311Z,95861.87
2019-04-25T11:50:25.032Z,95851.80
2019-04-25T11:52:54.821Z,95848.89
2019-04-25T11:55:24.278Z,95846.50
2019-04-25T11:57:54.968Z,95849.70
2019-04-25T12:00:27.800Z,95855.98
2019-04-25T12:02:57.217Z,95846.49
2019-04-25T12:05:26.612Z,95842.53
2019-04-25T12:07:56.079Z,95845.11
2019-04-25T12:10:26.123Z,95846.20
2019-04-25T12:12:55.628Z,95830.72
2019-04-25T12:15:27.193Z,95830.66
2019-04-25T12:17:57.534Z,95827.54
2019-04-25T12:20:26.992Z,95814.87
2019-04-25T12:23:05.958Z,95810.13
2019-04-25T12:25:27.449Z,95810.52
2019-04-25T12:27:56.795Z,95800.97
2019-04-25T12:30:37.460Z,95803.83
2019-04-25T12:32:57.341Z,95803.25
2019-04-25T12:35:28.468Z,95800.83
2019-04-25T12:37:57.888Z,95800.52
2019-04-25T12:40:27.258Z,95800.22
2019-04-25T12:42:56.676Z,95792.16
2019-04-25T12:45:45.842Z,95780.78
2019-04-25T12:48:15.854Z,95783.08
2019-04-25T12:50:46.364Z,95775.07
2019-04-25T12:53:15.825Z,95774.30
2019-04-25T12:55:45.193Z,95772.94
2019-04-25T12:58:14.589Z,95768.56
2019-04-25T13:00:49.404Z,95764.98
2019-04-25T13:03:15.123Z,95767.10
2019-04-25T13:05:44.501Z,95752.26
2019-04-25T13:08:14.413Z,95749.40
2019-04-25T13:10:44.538Z,95746.96
2019-04-25T13:13:15.359Z,95751.52
2019-04-25T13:15:46.145Z,95747.05
2019-04-25T13:18:15.660Z,95741.25
2019-04-25T13:20:45.062Z,95741.64
2019-04-25T13:23:14.521Z,95736.94
2019-04-25T13:25:44.231Z,95733.23
2019-04-25T13:28:27.671Z,95727.77
2019-04-25T13:31:15.107Z,95728.68
2019-04-25T13:34:15.551Z,95726.20
2019-04-25T13:36:45.035Z,95725.11
2019-04-25T13:39:17.248Z,95725.47
2019-04-25T13:41:46.696Z,95722.56
2019-04-25T13:44:16.206Z,95714.08
2019-04-25T13:46:45.579Z,95705.55
2019-04-25T13:49:15.732Z,95703.22
2019-04-25T13:51:47.970Z,95698.08
2019-04-25T13:54:17.331Z,95692.05
2019-04-25T13:56:47.542Z,95479.64
2019-04-25T13:59:17.121Z,95697.58
2019-04-25T14:01:46.610Z,95705.55
2019-04-25T14:04:16.393Z,95704.05
2019-04-25T14:06:45.770Z,95703.26
2019-04-25T14:09:18.434Z,95701.04
2019-04-25T14:11:47.858Z,95702.70
2019-04-25T14:14:17.291Z,95705.08
2019-04-25T14:16:59.669Z,95712.41
2019-04-25T14:19:41.833Z,95705.31
2019-04-25T14:22:11.241Z,95701.64
2019-04-25T14:24:40.619Z,95702.00
2019-04-25T14:27:10.830Z,95708.77
2019-04-25T14:29:40.194Z,95708.53
2019-04-25T14:32:11.356Z,95713.33
2019-04-25T14:34:40.767Z,95713.77
2019-04-25T14:37:10.178Z,95715.84
2019-04-25T14:39:39.710Z,95713.23
2019-04-25T14:42:09.091Z,95715.22
2019-04-25T14:44:38.470Z,95709.70
2019-04-25T14:47:07.828Z,95706.53
2019-04-25T14:49:37.218Z,95657.59
2019-04-25T14:52:06.764Z,95703.08
2019-04-25T14:54:54.717Z,95704.30
2019-04-25T14:57:26.721Z,95706.33
2019-04-25T15:00:01.958Z,95696.84
2019-04-25T15:02:32.245Z,95699.33
2019-04-25T15:05:01.605Z,95693.50
2019-04-25T15:07:31.047Z,95702.40
2019-04-25T15:10:00.387Z,95699.02
2019-04-25T15:12:29.763Z,95699.64
2019-04-25T15:14:59.113Z,95713.27
2019-04-25T15:17:28.634Z,95539.33
2019-04-25T15:19:57.969Z,95718.36
2019-04-25T15:22:27.963Z,95722.97
2019-04-25T15:24:57.406Z,95715.09
2019-04-25T15:27:26.805Z,95724.98
2019-04-25T15:29:56.255Z,95720.33
2019-04-25T15:32:29.121Z,95733.93
2019-04-25T15:34:59.056Z,95731.97
2019-04-25T15:37:34.847Z,95739.42
2019-04-25T15:40:14.328Z,95734.11
2019-04-25T15:42:54.391Z,95735.66
2019-04-25T15:45:51.831Z,95742.31
2019-04-25T15:48:21.322Z,95743.31
2019-04-25T15:50:51.103Z,95732.53
2019-04-25T15:53:20.621Z,95730.77
2019-04-25T15:55:49.987Z,95720.38
2019-04-25T15:58:19.337Z,95720.16
2019-04-25T16:00:48.719Z,95723.30
2019-04-25T16:03:18.386Z,95719.77
2019-04-25T16:05:47.886Z,95746.73
2019-04-25T16:08:17.287Z,95746.84
2019-04-25T16:10:48.605Z,95753.64
2019-04-25T16:13:21.272Z,95758.70
2019-04-25T16:15:50.644Z,95698.08
2019-04-25T16:18:20.044Z,95776.58
2019-04-25T16:20:49.419Z,95769.56
2019-04-25T16:23:18.802Z,95775.40
2019-04-25T16:25:48.433Z,95773.14
2019-04-25T16:28:17.839Z,95767.25
2019-04-25T16:30:47.488Z,95759.03
2019-04-25T16:33:17.419Z,95769.55
2019-04-25T16:35:46.839Z,95762.08
2019-04-25T16:38:23.212Z,95772.80
2019-04-25T16:40:52.729Z,95771.30
2019-04-25T16:43:36.670Z,95766.63
2019-04-25T16:46:09.327Z,95774.27
2019-04-25T16:48:39.175Z,95770.59
2019-04-25T16:51:17.656Z,95761.33
2019-04-25T16:53:47.192Z,95763.91
2019-04-25T16:56:16.489Z,95767.13
2019-04-25T16:58:46.261Z,95767.88
2019-04-25T17:01:17.811Z,95772.90
2019-04-25T17:03:47.812Z,95773.39
2019-04-25T17:06:20.524Z,95778.60
2019-04-25T17:08:50.203Z,95780.92
2019-04-25T17:11:19.737Z,95781.41
2019-04-25T17:14:10.935Z,95781.75
2019-04-25T17:16:52.718Z,95782.70
2019-04-25T17:19:42.198Z,95786.20
2019-04-25T17:22:11.949Z,95779.15
2019-04-25T17:24:44.270Z,95791.22
2019-04-25T17:27:13.880Z,95785.44
2019-04-25T17:29:43.240Z,95786.48
2019-04-25T17:32:20.572Z,95794.73
2019-04-25T17:35:00.120Z,95798.31
2019-04-25T17:37:57.756Z,95793.31
2019-04-25T17:40:29.329Z,95796.92
2019-04-25T17:43:10.252Z,95795.09
2019-04-25T17:45:33.398Z,95788.51
2019-04-25T17:48:02.993Z,95796.95
2019-04-25T17:50:32.939Z,95791.16
2019-04-25T17:53:02.333Z,95799.03
2019-04-25T17:55:33.171Z,95804.41
2019-04-25T17:58:02.770Z,95802.77
2019-04-25T18:00:37.917Z,95804.41
2019-04-25T18:03:10.395Z,95813.75
2019-04-25T18:05:40.240Z,95821.72
2019-04-25T18:08:09.654Z,95826.22
2019-04-25T18:10:39.455Z,95834.55
2019-04-25T18:13:09.564Z,95842.73
2019-04-25T18:16:01.086Z,95848.00
2019-04-25T18:18:39.178Z,95853.60
2019-04-25T18:21:08.653Z,95860.34
2019-04-25T18:23:51.332Z,95849.57
2019-04-25T18:26:26.687Z,95853.53
2019-04-25T18:29:00.314Z,95855.63
2019-04-25T18:31:29.755Z,95857.28
2019-04-25T18:34:02.341Z,95852.55
2019-04-25T18:36:49.541Z,95856.58
2019-04-25T18:39:36.515Z,95858.42
2019-04-25T18:42:17.568Z,95858.56
2019-04-25T18:44:46.969Z,95861.38
2019-04-25T18:47:16.365Z,95854.84
2019-04-25T18:49:46.752Z,95857.63
2019-04-25T18:52:53.293Z,95854.04
2019-04-25T18:55:39.137Z,95858.34
2019-04-25T18:58:31.137Z,95859.84
2019-04-25T19:01:18.047Z,95865.30
2019-04-25T19:04:09.205Z,95864.21
2019-04-25T19:06:51.214Z,95872.58
2019-04-25T19:09:11.898Z,95861.27
2019-04-25T19:11:41.344Z,95853.92
2019-04-25T19:14:10.744Z,95851.20
2019-04-25T19:16:41.186Z,95855.29
2019-04-25T19:19:10.611Z,95858.15
2019-04-25T19:21:40.739Z,95857.02
2019-04-25T19:24:10.941Z,95859.51
2019-04-25T19:26:42.283Z,95860.87
2019-04-25T19:29:11.716Z,95859.21
2019-04-25T19:31:42.148Z,95852.54
2019-04-25T19:34:11.578Z,95847.89
2019-04-25T19:36:41.481Z,95848.72
2019-04-25T19:39:13.653Z,95857.19
2019-04-25T19:41:49.757Z,95849.72
2019-04-25T19:44:22.182Z,95856.66
2019-04-25T19:46:51.644Z,95852.61
2019-04-25T19:49:21.037Z,95848.81
2019-04-25T19:51:50.451Z,95850.94
2019-04-25T19:54:21.167Z,95850.21
2019-04-25T19:56:50.528Z,95856.84
2019-04-25T19:59:19.958Z,95854.48
2019-04-25T20:01:50.643Z,95852.89
2019-04-25T20:04:29.741Z,95851.33
2019-04-25T20:07:36.547Z,95846.78
2019-04-25T20:10:24.594Z,95853.58
2019-04-25T20:12:54.997Z,95846.48
2019-04-25T20:15:24.725Z,95853.08
2019-04-25T20:17:54.350Z,95856.62
2019-04-25T20:20:23.876Z,95858.67
2019-04-25T20:22:54.374Z,95865.88
2019-04-25T20:25:23.874Z,95863.98
2019-04-25T20:27:53.226Z,95867.74
2019-04-25T20:30:23.731Z,95863.99
2019-04-25T20:32:53.653Z,95863.69
2019-04-25T20:35:31.416Z,95867.89
2019-04-25T20:38:01.216Z,95863.59
2019-04-25T20:40:30.739Z,95860.44
2019-04-25T20:43:00.104Z,95867.47
2019-04-25T20:45:29.445Z,95859.64
2019-04-25T20:47:58.914Z,95864.43
2019-04-25T20:50:28.336Z,95863.20
2019-04-25T20:52:57.749Z,95870.32
2019-04-25T20:55:27.582Z,95867.72
2019-04-25T20:57:57.855Z,95866.41
2019-04-25T21:00:55.919Z,95866.88
2019-04-25T21:03:25.440Z,95862.81
2019-04-25T21:05:57.218Z,95866.22
2019-04-25T21:08:26.663Z,95864.42
2019-04-25T21:10:56.058Z,95862.18
2019-04-25T21:13:43.399Z,95861.06
2019-04-25T21:16:30.577Z,95860.06
2019-04-25T21:19:06.419Z,95863.22
2019-04-25T21:21:35.808Z,95860.14
2019-04-25T21:24:05.167Z,95861.94
2019-04-25T21:26:34.555Z,95862.42
2019-04-25T21:29:03.972Z,95862.78
2019-04-25T21:31:33.334Z,95865.73
2019-04-25T21:34:02.715Z,95866.77
2019-04-25T21:36:32.912Z,95870.05
2019-04-25T21:39:02.591Z,95867.21
2019-04-25T21:41:57.645Z,95865.05
2019-04-25T21:44:27.424Z,95863.37
2019-04-25T21:46:56.864Z,95862.48
2019-04-25T21:49:26.437Z,95863.64
2019-04-25T21:51:56.972Z,95867.15
2019-04-25T21:54:26.409Z,95871.70
2019-04-25T21:56:56.030Z,95866.94
2019-04-25T21:59:25.866Z,95866.50
2019-04-25T22:01:58.829Z,95867.97
2019-04-25T22:04:38.181Z,95866.05
2019-04-25T22:07:00.834Z,95867.96
2019-04-25T22:09:30.610Z,95867.75
2019-04-25T22:12:01.172Z,95867.20
2019-04-25T22:14:30.718Z,95870.47
2019-04-25T22:17:00.491Z,95869.23
2019-04-25T22:19:30.346Z,95863.80
2019-04-25T22:22:00.610Z,95869.78
2019-04-25T22:24:30.180Z,95867.63
2019-04-25T22:27:02.079Z,95864.92
2019-04-25T22:29:33.213Z,95865.62
2019-04-25T22:32:36.896Z,95863.02
2019-04-25T22:35:29.432Z,95866.06
2019-04-25T22:38:00.023Z,95863.58
2019-04-25T22:40:29.528Z,95867.30
2019-04-25T22:43:00.314Z,95859.73
2019-04-25T22:45:29.711Z,95858.02
2019-04-25T22:48:00.486Z,95860.20
2019-04-25T22:50:30.834Z,95865.30
2019-04-25T22:53:01.295Z,95869.81
2019-04-25T22:55:31.482Z,95864.83
2019-04-25T22:58:01.255Z,95861.43
2019-04-25T23:00:36.296Z,95865.17
2019-04-25T23:03:15.180Z,95859.94
2019-04-25T23:05:48.535Z,95856.20
2019-04-25T23:08:18.099Z,95851.48
2019-04-25T23:10:48.394Z,95861.87
2019-04-25T23:13:17.871Z,95856.91
2019-04-25T23:15:47.349Z,95861.65
2019-04-25T23:18:16.891Z,95868.98
2019-04-25T23:20:46.307Z,95864.03
2019-04-25T23:23:15.939Z,95857.47
2019-04-25T23:26:03.543Z,95854.18
2019-04-25T23:28:37.542Z,95857.93
2019-04-25T23:31:14.402Z,95848.87
2019-04-25T23:33:44.223Z,95847.73
2019-04-25T23:36:13.919Z,95851.27
2019-04-25T23:38:43.316Z,95875.10
2019-04-25T23:41:13.604Z,95620.36
2019-04-25T23:43:43.911Z,95863.11
2019-04-25T23:46:13.259Z,95853.75
2019-04-25T23:48:43.618Z,95873.85
2019-04-25T23:51:13.268Z,95863.91
2019-04-25T23:53:43.075Z,95865.48
2019-04-25T23:56:13.140Z,95857.91
2019-04-25T23:58:42.820Z,95860.41
